Time;durP1;ratioP1;P1;durP2;ratioP2;P2;SDS_P1;SDS_P2;PMS_P1;PMS_P2;Temp;Humidity;BMP_temperature;BMP_pressure;BME280_temperature;BME280_humidity;BME280_pressure;Samples;Min_cycle;Max_cycle;Signal;HPM_P1;HPM_P2
2022/04/25 00:01:45;;;;;;;18.30;10.27;;;;;;;7.75;100.00;98711.75;4194076;28;20244;-68
2022/04/25 00:04:12;;;;;;;19.60;11.00;;;;;;;7.77;100.00;98715.91;4204387;28;22388;-72
2022/04/25 00:06:39;;;;;;;19.43;10.67;;;;;;;7.72;100.00;98714.75;4186108;28;20237;-68
2022/04/25 00:09:05;;;;;;;17.07;11.07;;;;;;;7.82;100.00;98710.09;4184465;28;20683;-70
2022/04/25 00:11:32;;;;;;;17.00;11.07;;;;;;;7.85;100.00;98712.41;4184525;28;20299;-68
2022/04/25 00:13:59;;;;;;;17.17;10.87;;;;;;;7.78;100.00;98714.09;4204845;28;20708;-69
2022/04/25 00:16:25;;;;;;;17.77;11.33;;;;;;;7.69;100.00;98707.16;4186234;28;20231;-69
2022/04/25 00:18:52;;;;;;;15.63;10.63;;;;;;;7.67;100.00;98706.50;4184763;28;21848;-68
2022/04/25 00:21:18;;;;;;;18.73;10.90;;;;;;;7.70;100.00;98695.56;4197355;28;20308;-71
2022/04/25 00:23:45;;;;;;;19.07;10.90;;;;;;;7.72;100.00;98702.31;4185967;28;20336;-68
2022/04/25 00:26:11;;;;;;;18.57;10.57;;;;;;;7.71;100.00;98697.22;4210246;28;20226;-69
2022/04/25 00:28:38;;;;;;;16.77;10.83;;;;;;;7.66;100.00;98702.19;4178054;28;20233;-67
2022/04/25 00:31:04;;;;;;;15.83;10.43;;;;;;;7.74;100.00;98699.53;4195035;28;20271;-70
2022/04/25 00:33:31;;;;;;;15.00;10.30;;;;;;;7.74;100.00;98696.88;4190675;28;20508;-69
2022/04/25 00:35:57;;;;;;;16.47;10.53;;;;;;;7.65;100.00;98709.28;4191633;28;20233;-69
2022/04/25 00:38:24;;;;;;;16.53;10.53;;;;;;;7.67;100.00;98699.38;4189825;28;20236;-70
2022/04/25 00:40:51;;;;;;;16.40;10.40;;;;;;;7.59;100.00;98697.56;4190825;28;21759;-69
2022/04/25 00:43:17;;;;;;;18.87;9.80;;;;;;;7.63;100.00;98699.88;4195740;28;20241;-69
2022/04/25 00:45:44;;;;;;;15.17;9.87;;;;;;;7.57;100.00;98699.56;4192219;28;20239;-69
2022/04/25 00:48:10;;;;;;;18.50;9.53;;;;;;;7.55;100.00;98701.53;4211157;28;20229;-68
2022/04/25 00:50:38;;;;;;;17.10;10.37;;;;;;;7.48;100.00;98697.09;4186104;28;26297;-68
2022/04/25 00:53:06;;;;;;;16.93;9.50;;;;;;;7.49;100.00;98696.09;4188130;28;22036;-68
2022/04/25 00:55:33;;;;;;;15.73;9.33;;;;;;;7.56;100.00;98708.50;4193597;28;20240;-70
2022/04/25 00:57:59;;;;;;;15.70;9.80;;;;;;;7.55;100.00;98698.06;4186719;28;20298;-72
2022/04/25 01:00:26;;;;;;;14.63;9.10;;;;;;;7.50;100.00;98693.28;4185981;28;20295;-70
2022/04/25 01:02:52;;;;;;;14.20;9.30;;;;;;;7.52;100.00;98695.78;4203292;28;20239;-68
2022/04/25 01:05:19;;;;;;;15.03;9.37;;;;;;;7.52;100.00;98688.66;4187763;28;20234;-67
2022/04/25 01:07:46;;;;;;;13.23;8.43;;;;;;;7.44;100.00;98683.34;4194532;28;23344;-68
2022/04/25 01:10:13;;;;;;;13.07;8.50;;;;;;;7.36;100.00;98680.75;4193066;28;20240;-70
2022/04/25 01:12:40;;;;;;;15.53;8.70;;;;;;;7.37;100.00;98683.22;4181020;28;20398;-69
2022/04/25 01:15:09;;;;;;;12.07;8.50;;;;;;;7.32;100.00;98682.06;4206747;28;21970;-70
2022/04/25 01:17:36;;;;;;;13.77;8.50;;;;;;;7.27;100.00;98677.28;4180099;28;20335;-68
2022/04/25 01:20:04;;;;;;;14.50;9.30;;;;;;;7.25;100.00;98673.16;4209254;28;20225;-69
2022/04/25 01:22:32;;;;;;;16.97;8.53;;;;;;;7.28;100.00;98665.72;4177789;28;20241;-74
2022/04/25 01:27:44;;;;;;;12.93;8.13;;;;;;;7.34;100.00;98661.56;4187415;28;21230;-75
2022/04/25 01:30:10;;;;;;;13.93;8.53;;;;;;;7.29;100.00;98661.25;4185556;28;20256;-74
2022/04/25 01:32:37;;;;;;;12.67;8.40;;;;;;;7.24;100.00;98656.44;4191841;28;20918;-76
2022/04/25 01:35:05;;;;;;;14.17;8.63;;;;;;;7.28;100.00;98662.22;4195591;28;20252;-68
2022/04/25 01:37:32;;;;;;;15.00;8.60;;;;;;;7.25;100.00;98657.28;4186279;28;20234;-68
2022/04/25 01:39:58;;;;;;;13.50;8.37;;;;;;;7.19;100.00;98651.66;4186968;28;21557;-66
2022/04/25 01:42:25;;;;;;;13.50;7.73;;;;;;;7.24;100.00;98655.63;4170965;28;272886;-66
2022/04/25 01:44:52;;;;;;;12.40;8.03;;;;;;;7.21;100.00;98651.50;4175460;28;20238;-67
2022/04/25 01:47:19;;;;;;;13.17;8.87;;;;;;;7.22;100.00;98654.97;4201246;28;20255;-65
2022/04/25 01:49:46;;;;;;;13.80;8.63;;;;;;;7.17;100.00;98656.28;4186828;28;21855;-69
2022/04/25 01:52:32;;;;;;;16.20;8.70;;;;;;;7.25;100.00;98651.97;4173624;28;20237;-69
2022/04/25 01:54:59;;;;;;;12.57;8.30;;;;;;;7.16;100.00;98648.50;4200628;28;21105;-67
2022/04/25 01:57:26;;;;;;;11.37;7.80;;;;;;;7.22;100.00;98662.91;4190607;28;24751;-68
2022/04/25 01:59:53;;;;;;;12.97;8.60;;;;;;;7.23;100.00;98656.59;4184587;28;20242;-67
2022/04/25 02:02:22;;;;;;;14.20;8.73;;;;;;;7.22;100.00;98654.97;4188379;28;22975;-70
2022/04/25 02:04:49;;;;;;;12.43;8.63;;;;;;;7.23;100.00;98661.91;4168942;28;20305;-68
2022/04/25 02:07:16;;;;;;;14.20;7.97;;;;;;;7.25;100.00;98663.38;4202640;28;20655;-71
2022/04/25 02:09:42;;;;;;;12.90;8.33;;;;;;;7.24;100.00;98660.94;4188031;28;21050;-69
2022/04/25 02:12:09;;;;;;;12.27;8.07;;;;;;;7.23;100.00;98654.78;4179718;28;20236;-67
2022/04/25 02:14:36;;;;;;;13.07;8.10;;;;;;;7.19;100.00;98654.31;4186136;28;23269;-66
2022/04/25 02:17:02;;;;;;;13.13;8.57;;;;;;;7.27;100.00;98656.09;4182988;28;21464;-68
2022/04/25 02:19:30;;;;;;;14.33;8.73;;;;;;;7.27;100.00;98653.47;4189419;28;20403;-65
2022/04/25 02:21:57;;;;;;;14.73;8.60;;;;;;;7.27;100.00;98647.34;4193379;28;20244;-69
2022/04/25 02:24:23;;;;;;;14.23;8.20;;;;;;;7.27;100.00;98644.69;4192551;28;20420;-69
2022/04/25 02:26:50;;;;;;;13.50;7.63;;;;;;;7.25;100.00;98647.50;4184081;28;20290;-67
2022/04/25 02:29:18;;;;;;;13.13;7.63;;;;;;;7.25;100.00;98646.69;4204273;28;20227;-68
2022/04/25 02:31:45;;;;;;;11.23;7.70;;;;;;;7.26;100.00;98649.19;4179623;28;21215;-68
2022/04/25 02:34:11;;;;;;;12.97;7.97;;;;;;;7.19;100.00;98648.19;4184618;28;20229;-69
2022/04/25 02:36:38;;;;;;;11.63;7.00;;;;;;;7.16;100.00;98651.16;4190001;28;20306;-69
2022/04/25 02:39:04;;;;;;;13.73;8.03;;;;;;;7.18;100.00;98651.81;4189516;28;20549;-69
2022/04/25 02:41:31;;;;;;;11.60;7.57;;;;;;;7.18;100.00;98646.53;4169987;28;20237;-68
2022/04/25 02:43:58;;;;;;;12.20;7.93;;;;;;;7.23;100.00;98656.59;4186892;28;20252;-69
2022/04/25 02:46:24;;;;;;;11.53;8.03;;;;;;;7.28;100.00;98656.94;4180774;28;20235;-67
2022/04/25 02:48:51;;;;;;;12.20;7.10;;;;;;;7.23;100.00;98653.97;4179408;28;20243;-68
2022/04/25 02:51:17;;;;;;;11.80;8.00;;;;;;;7.19;100.00;98648.19;4173461;28;20237;-69
2022/04/25 02:53:44;;;;;;;12.37;7.47;;;;;;;7.24;100.00;98656.44;4197901;28;21792;-66
2022/04/25 02:56:11;;;;;;;13.57;7.60;;;;;;;7.19;100.00;98654.31;4214433;28;21121;-70
2022/04/25 02:58:38;;;;;;;12.13;7.73;;;;;;;7.20;100.00;98655.13;4184368;28;20315;-69
2022/04/25 03:01:06;;;;;;;11.20;7.67;;;;;;;7.20;100.00;98657.78;4200116;28;20222;-69
2022/04/25 03:03:34;;;;;;;12.10;7.93;;;;;;;7.22;100.00;98657.63;4183036;28;21193;-69
2022/04/25 03:06:02;;;;;;;13.73;8.40;;;;;;;7.16;100.00;98654.66;4189148;28;20235;-68
2022/04/25 03:08:29;;;;;;;13.90;7.97;;;;;;;7.21;100.00;98653.31;4196819;28;25328;-69
2022/04/25 03:10:56;;;;;;;13.73;7.83;;;;;;;7.15;100.00;98658.28;4203393;28;20232;-67
2022/04/25 03:13:26;;;;;;;14.20;8.37;;;;;;;7.23;100.00;98661.91;4185961;28;22008;-68
2022/04/25 03:15:53;;;;;;;12.63;8.10;;;;;;;7.28;100.00;98662.22;4175254;28;20419;-67
2022/04/25 03:18:21;;;;;;;14.23;8.73;;;;;;;7.25;100.00;98665.22;4206489;28;20246;-67
2022/04/25 03:20:49;;;;;;;12.47;7.83;;;;;;;7.19;100.00;98670.19;4180052;28;23012;-68
2022/04/25 03:23:20;;;;;;;12.90;8.60;;;;;;;7.21;100.00;98671.81;4187323;28;21549;-67
2022/04/25 03:25:47;;;;;;;11.70;7.80;;;;;;;7.17;100.00;98658.94;4167753;28;20362;-69
2022/04/25 03:28:14;;;;;;;13.87;9.30;;;;;;;7.16;100.00;98659.94;4189505;28;20243;-68
2022/04/25 03:30:41;;;;;;;12.87;8.63;;;;;;;7.16;100.00;98659.94;4181520;28;20332;-68
2022/04/25 03:33:11;;;;;;;13.53;9.33;;;;;;;7.16;100.00;98661.72;4185277;28;20256;-68
2022/04/25 03:35:38;;;;;;;14.70;9.53;;;;;;;7.21;100.00;98661.22;4188515;28;20232;-67
2022/04/25 03:38:06;;;;;;;13.53;8.87;;;;;;;7.22;100.00;98658.44;4181777;28;20927;-69
2022/04/25 03:40:36;;;;;;;16.87;9.50;;;;;;;7.22;100.00;98668.19;4189457;28;20296;-68
2022/04/25 03:43:06;;;;;;;14.90;9.63;;;;;;;7.22;100.00;98663.72;4185389;28;20295;-67
2022/04/25 03:45:34;;;;;;;13.73;9.33;;;;;;;7.12;100.00;98669.19;4187716;28;20324;-68
2022/04/25 03:48:01;;;;;;;15.97;9.90;;;;;;;7.22;100.00;98673.50;4211204;28;20321;-67
2022/04/25 03:50:27;;;;;;;14.53;9.90;;;;;;;7.17;100.00;98672.16;4188134;28;20857;-67
2022/04/25 03:52:54;;;;;;;16.87;10.00;;;;;;;7.19;100.00;98672.00;4175939;28;20299;-68
2022/04/25 03:58:06;;;;;;;15.17;10.50;;;;;;;7.30;100.00;98676.09;4212287;28;21245;-67
2022/04/25 04:00:35;;;;;;;16.67;10.60;;;;;;;7.31;100.00;98680.44;4188180;28;20232;-68
2022/04/25 04:03:02;;;;;;;15.50;10.03;;;;;;;7.32;100.00;98679.41;4188807;28;22830;-71
2022/04/25 04:05:29;;;;;;;15.67;10.30;;;;;;;7.28;100.00;98686.03;4195251;28;23835;-67
2022/04/25 04:07:58;;;;;;;16.97;11.23;;;;;;;7.30;100.00;98692.81;4206803;28;21702;-66
2022/04/25 04:10:25;;;;;;;15.73;10.80;;;;;;;7.32;100.00;98690.00;4203557;28;20289;-67
2022/04/25 04:12:51;;;;;;;15.53;11.07;;;;;;;7.34;100.00;98693.31;4191257;28;20316;-68
2022/04/25 04:15:18;;;;;;;17.53;11.60;;;;;;;7.30;100.00;98697.28;4179160;28;22750;-69
2022/04/25 04:17:44;;;;;;;17.67;11.93;;;;;;;7.22;100.00;98694.66;4189578;28;20721;-69
2022/04/25 04:20:12;;;;;;;17.63;11.07;;;;;;;7.29;100.00;98700.94;4188220;28;20237;-68
2022/04/25 04:22:40;;;;;;;16.73;11.37;;;;;;;7.22;100.00;98697.28;4193792;28;22345;-68
2022/04/25 04:25:10;;;;;;;18.70;11.27;;;;;;;7.21;100.00;98692.97;4199986;28;20247;-69
2022/04/25 04:27:36;;;;;;;16.50;11.97;;;;;;;7.22;100.00;98702.59;4201901;28;20240;-66
2022/04/25 04:30:08;;;;;;;17.73;12.23;;;;;;;7.25;100.00;98699.59;4201781;28;20236;-69
2022/04/25 04:32:38;;;;;;;17.63;11.40;;;;;;;7.23;100.00;98712.16;4178772;28;20426;-70
2022/04/25 04:35:07;;;;;;;18.47;12.43;;;;;;;7.26;100.00;98711.81;4180981;28;27240;-68
2022/04/25 04:37:34;;;;;;;17.60;12.40;;;;;;;7.26;100.00;98717.97;4185842;28;20569;-70
2022/04/25 04:42:48;;;;;;;19.57;12.47;;;;;;;7.30;100.00;98726.38;4202367;28;20431;-68
2022/04/25 04:45:15;;;;;;;18.27;12.50;;;;;;;7.28;100.00;98726.56;4235552;28;20230;-68
2022/04/25 04:47:42;;;;;;;20.33;13.47;;;;;;;7.29;100.00;98730.84;4210289;28;21265;-67
2022/04/25 04:50:14;;;;;;;20.13;13.90;;;;;;;7.32;100.00;98737.63;4225898;28;20331;-67
2022/04/25 04:52:45;;;;;;;22.03;14.80;;;;;;;7.34;100.00;98733.00;4206832;28;21351;-66
2022/04/25 04:55:12;;;;;;;22.60;13.93;;;;;;;7.32;100.00;98732.34;4241083;28;20241;-69
2022/04/25 04:57:39;;;;;;;21.87;14.57;;;;;;;7.33;100.00;98729.53;4229735;28;21277;-67
2022/04/25 05:00:09;;;;;;;20.37;14.17;;;;;;;7.42;100.00;98732.16;4242852;28;20238;-68
2022/04/25 05:02:36;;;;;;;21.43;13.80;;;;;;;7.43;100.00;98739.13;4212697;28;20294;-67
2022/04/25 05:05:03;;;;;;;22.20;14.07;;;;;;;7.34;100.00;98735.66;4229861;28;20228;-68
2022/04/25 05:07:30;;;;;;;21.87;14.43;;;;;;;7.36;100.00;98739.78;4246126;28;20291;-68
2022/04/25 05:09:57;;;;;;;22.17;14.10;;;;;;;7.47;100.00;98743.91;4249524;28;20241;-66
2022/04/25 05:12:27;;;;;;;19.40;14.30;;;;;;;7.46;100.00;98742.25;4239255;28;20245;-67
2022/04/25 05:14:54;;;;;;;19.30;14.23;;;;;;;7.52;100.00;98749.53;4209798;28;20416;-68
2022/04/25 05:17:22;;;;;;;21.00;14.40;;;;;;;7.48;100.00;98739.44;4228107;28;20229;-68
2022/04/25 05:19:49;;;;;;;19.83;13.80;;;;;;;7.64;100.00;98741.25;4236591;28;20236;-68
2022/04/25 05:22:16;;;;;;;25.30;14.47;;;;;;;7.48;100.00;98745.56;4175982;28;21784;-69
2022/04/25 05:24:43;;;;;;;23.33;14.67;;;;;;;7.55;100.00;98743.91;4179086;28;20961;-70
2022/04/25 05:27:10;;;;;;;21.37;15.33;;;;;;;7.46;100.00;98741.44;4229314;28;22904;-69
2022/04/25 05:29:37;;;;;;;19.97;14.53;;;;;;;7.40;100.00;98742.94;4198763;28;22010;-67
2022/04/25 05:32:04;;;;;;;22.80;14.93;;;;;;;7.40;100.00;98735.81;4188313;28;22177;-68
2022/04/25 05:34:37;;;;;;;29.90;16.53;;;;;;;7.43;100.00;98747.88;4186187;28;20312;-68
2022/04/25 05:37:04;;;;;;;24.20;17.37;;;;;;;7.47;100.00;98745.72;4209588;28;20315;-69
2022/04/25 05:39:32;;;;;;;26.40;16.37;;;;;;;7.52;100.00;98748.72;4204021;28;20331;-66
2022/04/25 05:42:02;;;;;;;22.03;15.67;;;;;;;7.51;100.00;98747.84;4185090;28;22021;-68
2022/04/25 05:44:29;;;;;;;22.60;16.17;;;;;;;7.51;100.00;98753.16;4195942;28;23107;-67
2022/04/25 05:46:56;;;;;;;24.13;15.53;;;;;;;7.51;100.00;98752.34;4180288;28;21772;-67
2022/04/25 05:52:08;;;;;;;22.57;15.33;;;;;;;7.64;100.00;98757.13;4208690;28;20237;-67
2022/04/25 05:54:36;;;;;;;22.10;15.23;;;;;;;7.67;100.00;98764.72;4202214;28;20419;-68
2022/04/25 05:57:03;;;;;;;21.07;14.37;;;;;;;7.64;100.00;98767.72;4177858;28;25463;-70
2022/04/25 05:59:30;;;;;;;20.80;14.43;;;;;;;7.68;100.00;98761.06;4183594;28;20287;-64
2022/04/25 06:01:57;;;;;;;21.17;14.87;;;;;;;7.69;100.00;98762.75;4201695;28;20235;-65
2022/04/25 06:04:24;;;;;;;22.57;15.73;;;;;;;7.74;100.00;98768.34;4184582;28;20229;-69
2022/04/25 06:06:59;;;;;;;22.37;15.27;;;;;;;7.61;100.00;98767.06;4182442;28;20236;-64
2022/04/25 06:09:26;;;;;;;22.00;14.70;;;;;;;7.68;100.00;98769.03;4184117;28;20244;-66
2022/04/25 06:11:53;;;;;;;21.67;15.17;;;;;;;7.65;100.00;98774.66;4191277;28;20244;-67
2022/04/25 06:14:21;;;;;;;22.60;15.63;;;;;;;7.61;100.00;98775.00;4184564;28;22548;-68
2022/04/25 06:16:48;;;;;;;26.67;16.27;;;;;;;7.58;100.00;98780.59;4177591;28;20792;-66
2022/04/25 06:19:15;;;;;;;22.23;15.37;;;;;;;7.66;100.00;98776.31;4185545;28;20302;-66
2022/04/25 06:21:42;;;;;;;21.00;15.30;;;;;;;7.68;100.00;98783.09;4192033;28;21181;-67
2022/04/25 06:24:08;;;;;;;24.27;15.90;;;;;;;7.65;100.00;98787.91;4179734;28;20346;-67
2022/04/25 06:26:36;;;;;;;19.17;14.50;;;;;;;7.67;100.00;98785.91;4180044;28;21632;-66
2022/04/25 06:29:03;;;;;;;21.83;15.37;;;;;;;7.79;100.00;98784.56;4180748;28;20233;-66
2022/04/25 06:31:30;;;;;;;21.67;15.30;;;;;;;7.75;100.00;98777.94;4173011;28;20229;-66
2022/04/25 06:33:57;;;;;;;20.07;14.13;;;;;;;7.73;100.00;98779.97;4190647;28;22680;-63
2022/04/25 06:36:24;;;;;;;17.83;13.40;;;;;;;7.75;100.00;98780.59;4187799;28;20232;-65
2022/04/25 06:38:51;;;;;;;18.17;13.57;;;;;;;7.78;100.00;98794.34;4181175;28;20246;-66
2022/04/25 06:41:17;;;;;;;18.90;13.63;;;;;;;7.79;100.00;98792.50;4186505;28;20240;-69
2022/04/25 06:43:44;;;;;;;18.87;12.90;;;;;;;7.89;100.00;98790.53;4209792;28;20231;-69
2022/04/25 06:46:10;;;;;;;18.17;12.97;;;;;;;7.99;100.00;98780.56;4203883;28;20232;-72
2022/04/25 06:48:37;;;;;;;20.00;12.00;;;;;;;7.96;100.00;98782.72;4200879;28;20235;-74
2022/04/25 06:51:04;;;;;;;18.53;12.80;;;;;;;8.00;100.00;98794.63;4207478;28;20228;-73
2022/04/25 06:53:30;;;;;;;18.60;12.47;;;;;;;7.95;100.00;98792.47;4205284;28;20266;-74
2022/04/25 06:55:57;;;;;;;16.77;11.50;;;;;;;7.86;100.00;98793.50;4203872;28;20237;-74
2022/04/25 06:58:26;;;;;;;16.30;12.13;;;;;;;7.94;100.00;98795.31;4227954;28;22202;-73
2022/04/25 07:00:53;;;;;;;15.80;11.33;;;;;;;7.87;100.00;98795.16;4196920;28;20395;-72
2022/04/25 07:03:28;;;;;;;14.57;10.77;;;;;;;7.93;100.00;98805.06;4216673;28;22374;-73
2022/04/25 07:05:58;;;;;;;15.03;10.83;;;;;;;7.88;100.00;98802.09;4204034;28;20244;-73
2022/04/25 07:08:26;;;;;;;16.63;11.10;;;;;;;7.85;100.00;98799.78;4221748;28;20251;-74
2022/04/25 07:10:53;;;;;;;17.53;11.60;;;;;;;7.88;100.00;98807.38;4216053;28;21514;-72
2022/04/25 07:13:19;;;;;;;19.20;11.90;;;;;;;7.97;100.00;98808.22;4202036;28;20303;-74
2022/04/25 07:15:45;;;;;;;18.77;11.77;;;;;;;8.02;100.00;98813.84;4194036;28;20232;-72
2022/04/25 07:18:15;;;;;;;16.30;11.80;;;;;;;7.94;100.00;98817.31;4200971;28;21566;-74
2022/04/25 07:20:42;;;;;;;20.73;13.60;;;;;;;7.97;100.00;98829.41;4192155;28;20233;-74
2022/04/25 07:28:48;;;;;;;18.83;11.60;;;;;;;8.02;100.00;98829.72;4206662;28;20256;-73
2022/04/25 07:28:58;;;;;;;18.33;11.63;;;;;;;7.98;100.00;98823.94;4217117;28;20236;-75
2022/04/25 07:31:24;;;;;;;17.57;12.33;;;;;;;7.98;100.00;98823.09;4201952;28;20238;-73
2022/04/25 07:33:56;;;;;;;15.87;11.67;;;;;;;8.05;100.00;98832.03;4220847;28;20231;-73
2022/04/25 07:36:24;;;;;;;16.93;12.10;;;;;;;8.07;100.00;98829.22;4222289;28;20278;-73
2022/04/25 07:38:51;;;;;;;18.63;12.67;;;;;;;8.00;100.00;98840.47;4190625;28;20315;-78
2022/04/25 07:41:17;;;;;;;19.63;12.37;;;;;;;8.07;100.00;98838.00;4222478;28;20221;-78
2022/04/25 07:43:44;;;;;;;18.43;12.10;;;;;;;8.13;100.00;98839.97;4200425;28;25270;-78
2022/04/25 07:46:13;;;;;;;16.40;12.40;;;;;;;8.16;100.00;98838.81;4191533;28;20297;-78
2022/04/25 07:48:40;;;;;;;22.70;11.53;;;;;;;8.04;100.00;98839.16;4205346;28;20243;-76
2022/04/25 07:51:06;;;;;;;15.70;10.97;;;;;;;8.16;100.00;98849.41;4187926;28;20235;-73
2022/04/25 07:53:33;;;;;;;19.03;12.30;;;;;;;8.19;100.00;98846.41;4196281;28;21800;-71
2022/04/25 07:55:59;;;;;;;18.63;12.77;;;;;;;8.19;100.00;98852.56;4204399;28;20237;-73
2022/04/25 07:58:26;;;;;;;14.60;10.67;;;;;;;8.26;100.00;98850.03;4192085;28;20475;-73
2022/04/25 08:00:52;;;;;;;21.90;13.83;;;;;;;8.17;100.00;98853.69;4184601;28;20810;-77
2022/04/25 08:03:25;;;;;;;15.57;10.97;;;;;;;8.17;100.00;98856.34;4202607;28;22247;-77
2022/04/25 08:05:52;;;;;;;14.50;9.97;;;;;;;8.24;100.00;98854.69;4194607;28;21182;-73
2022/04/25 08:08:18;;;;;;;15.27;10.20;;;;;;;8.32;100.00;98856.50;4193767;28;20289;-76
2022/04/25 08:10:45;;;;;;;14.73;10.17;;;;;;;8.33;100.00;98855.50;4181176;28;20301;-75
2022/04/25 08:18:42;;;;;;;14.47;9.33;;;;;;;8.35;100.00;98869.41;4219299;28;21886;-76
2022/04/25 08:21:08;;;;;;;16.97;9.77;;;;;;;8.30;100.00;98869.91;4184063;28;20292;-75
2022/04/25 08:23:36;;;;;;;13.17;9.67;;;;;;;8.19;100.00;98867.59;4200107;28;21377;-72
2022/04/25 08:26:03;;;;;;;14.10;10.17;;;;;;;8.17;100.00;98872.25;4206861;28;20251;-73
2022/04/25 08:28:29;;;;;;;14.30;9.93;;;;;;;8.16;100.00;98870.59;4201110;28;21740;-76
2022/04/25 08:31:16;;;;;;;14.27;8.90;;;;;;;8.29;100.00;98872.72;4207346;28;20235;-76
2022/04/25 08:33:46;;;;;;;10.77;7.97;;;;;;;8.41;100.00;98877.53;4187458;28;20235;-75
2022/04/25 08:36:13;;;;;;;11.40;8.20;;;;;;;8.52;100.00;98873.72;4205358;28;20638;-75
2022/04/25 08:38:43;;;;;;;11.90;7.23;;;;;;;8.56;100.00;98885.59;4213267;28;20763;-73
2022/04/25 08:41:11;;;;;;;11.43;8.30;;;;;;;8.59;100.00;98876.47;4206016;28;20623;-74
2022/04/25 08:43:41;;;;;;;9.63;7.07;;;;;;;8.62;100.00;98884.94;4217722;28;20288;-75
2022/04/25 08:46:09;;;;;;;11.03;6.83;;;;;;;8.52;100.00;98886.13;4187958;28;20320;-76
2022/04/25 08:48:39;;;;;;;13.80;7.00;;;;;;;8.43;100.00;98896.75;4191459;28;20230;-74
2022/04/25 08:51:07;;;;;;;9.97;7.40;;;;;;;8.43;100.00;98886.16;4240951;28;20244;-74
2022/04/25 08:53:34;;;;;;;11.63;7.23;;;;;;;8.47;100.00;98876.03;4227898;28;25553;-75
2022/04/25 08:56:03;;;;;;;10.50;7.53;;;;;;;8.61;100.00;98882.44;4197341;28;21239;-76
2022/04/25 08:58:36;;;;;;;10.83;7.10;;;;;;;8.55;100.00;98885.81;4209391;28;20714;-74
2022/04/25 09:01:02;;;;;;;9.77;6.13;;;;;;;8.66;100.00;98882.75;4211607;28;20714;-76
2022/04/25 09:03:29;;;;;;;10.13;6.83;;;;;;;8.78;100.00;98884.06;4203752;28;20265;-76
2022/04/25 09:05:58;;;;;;;11.70;6.60;;;;;;;8.83;100.00;98900.28;4191924;28;20243;-76
2022/04/25 09:08:25;;;;;;;9.30;5.77;;;;;;;8.77;100.00;98897.47;4191249;28;20230;-75
2022/04/25 09:12:09;;;;;;;10.90;5.97;;;;;;;8.77;100.00;98897.47;4208700;28;20248;-74
2022/04/25 09:13:39;;;;;;;8.97;5.53;;;;;;;8.71;100.00;98904.31;4194505;28;20247;-76
2022/04/25 09:16:15;;;;;;;9.13;5.87;;;;;;;8.61;100.00;98908.97;4226613;28;20333;-74
2022/04/25 09:18:42;;;;;;;15.77;6.23;;;;;;;8.58;100.00;98909.31;4182706;28;20249;-75
2022/04/25 09:21:13;;;;;;;8.23;6.07;;;;;;;8.51;100.00;98908.34;4216370;28;22881;-75
2022/04/25 09:23:40;;;;;;;11.73;6.37;;;;;;;8.63;100.00;98910.44;4194622;28;20236;-75
2022/04/25 09:26:19;;;;;;;6.73;5.30;;;;;;;8.69;100.00;98914.25;4219690;28;22978;-73
2022/04/25 09:28:50;;;;;;;7.47;5.03;;;;;;;8.61;100.00;98911.63;4266907;28;20300;-74
2022/04/25 09:31:17;;;;;;;7.27;5.40;;;;;;;8.62;100.00;98913.28;4185800;28;20237;-73
2022/04/25 09:33:44;;;;;;;11.57;5.53;;;;;;;8.68;100.00;98923.19;4201899;28;20237;-74
2022/04/25 09:36:11;;;;;;;12.67;5.57;;;;;;;8.63;100.00;98917.56;4202896;28;20475;-76
2022/04/25 09:38:40;;;;;;;10.23;5.63;;;;;;;8.64;100.00;98924.56;4199075;28;20229;-73
2022/04/25 09:41:09;;;;;;;10.30;5.57;;;;;;;8.65;100.00;98924.38;4229000;28;21361;-74
2022/04/25 09:43:38;;;;;;;8.13;5.17;;;;;;;8.65;100.00;98934.97;4204166;28;21673;-80
2022/04/25 09:46:10;;;;;;;8.87;5.20;;;;;;;8.61;100.00;98933.66;4217994;28;21170;-70
2022/04/25 09:48:39;;;;;;;8.17;4.90;;;;;;;8.75;100.00;98932.13;4214000;28;21803;-71
2022/04/25 09:51:10;;;;;;;10.77;5.30;;;;;;;8.87;100.00;98940.53;4207219;28;20567;-70
2022/04/25 09:53:44;;;;;;;9.27;5.13;;;;;;;8.98;100.00;98942.00;4216285;28;20235;-71
2022/04/25 09:56:19;;;;;;;7.03;4.90;;;;;;;9.03;100.00;98945.78;4187124;28;21508;-70
2022/04/25 09:59:02;;;;;;;9.40;4.77;;;;;;;9.08;100.00;98945.28;4186667;28;20243;-69
2022/04/25 10:01:30;;;;;;;7.40;4.77;;;;;;;9.08;100.00;98945.28;4192532;28;20302;-70
2022/04/25 10:03:58;;;;;;;8.43;5.13;;;;;;;9.03;100.00;98955.59;4177704;28;20244;-70
2022/04/25 10:06:25;;;;;;;6.30;4.37;;;;;;;9.05;99.47;98953.59;4258289;28;20230;-70
2022/04/25 10:08:52;;;;;;;8.47;5.00;;;;;;;9.04;99.66;98955.41;4202541;28;20527;-70
2022/04/25 10:11:20;;;;;;;8.97;4.87;;;;;;;9.24;99.03;98958.47;4203303;28;21851;-72
2022/04/25 10:13:50;;;;;;;9.53;4.40;;;;;;;9.29;97.48;98956.16;4263203;28;21765;-71
2022/04/25 10:16:20;;;;;;;5.77;4.07;;;;;;;9.41;96.88;98963.72;4226088;28;20231;-72
2022/04/25 10:18:47;;;;;;;7.07;4.70;;;;;;;9.49;95.64;98969.00;4244044;28;20240;-72
2022/04/25 10:21:14;;;;;;;6.40;4.37;;;;;;;9.64;95.18;98963.75;4223419;28;20233;-72
2022/04/25 10:23:42;;;;;;;6.57;3.53;;;;;;;9.77;95.62;98964.00;4233673;28;20341;-81
2022/04/25 10:26:09;;;;;;;6.27;4.17;;;;;;;10.00;94.20;98963.19;4200989;28;20905;-73
2022/04/25 10:28:36;;;;;;;5.57;3.57;;;;;;;10.09;94.28;98962.97;4204503;28;20256;-74
2022/04/25 10:31:09;;;;;;;4.80;3.60;;;;;;;10.05;92.97;98961.66;4231461;28;20233;-70
2022/04/25 10:33:49;;;;;;;8.23;4.10;;;;;;;9.81;93.01;98964.47;4182770;28;20704;-77
2022/04/25 10:36:40;;;;;;;5.43;3.90;;;;;;;9.68;92.69;98965.06;4193080;28;20230;-67
2022/04/25 10:39:13;;;;;;;6.73;4.53;;;;;;;9.68;93.76;98963.22;4236983;28;20229;-68
2022/04/25 10:44:42;;;;;;;7.27;4.27;;;;;;;9.82;93.52;98977.59;4191823;28;20307;-67
2022/04/25 10:47:13;;;;;;;8.80;4.50;;;;;;;9.81;93.11;98983.06;4190855;28;20225;-72
2022/04/25 10:49:52;;;;;;;8.80;4.53;;;;;;;9.98;92.81;98974.00;4186431;28;20305;-70
2022/04/25 10:52:37;;;;;;;6.23;4.50;;;;;;;10.05;91.46;98987.41;4192190;28;20236;-70
2022/04/25 10:55:13;;;;;;;7.67;4.50;;;;;;;9.99;91.70;98985.44;4180111;28;20318;-73
2022/04/25 10:58:07;;;;;;;9.77;4.73;;;;;;;10.04;92.29;98991.88;4171079;28;20297;-70
2022/04/25 11:00:39;;;;;;;7.83;4.40;;;;;;;10.03;92.23;98992.06;4204330;28;21778;-71
2022/04/25 11:03:33;;;;;;;7.03;4.60;;;;;;;9.98;92.08;98986.47;4193859;28;20420;-73
2022/04/25 11:06:05;;;;;;;9.10;4.90;;;;;;;9.99;91.28;98998.72;4199687;28;22072;-70
2022/04/25 11:08:36;;;;;;;6.20;4.63;;;;;;;10.03;91.38;99000.88;4194100;28;20399;-72
2022/04/25 11:11:16;;;;;;;6.63;4.10;;;;;;;10.00;91.71;98998.56;4196413;28;23608;-69
2022/04/25 11:14:11;;;;;;;7.13;4.57;;;;;;;10.15;91.09;99003.94;4177072;28;20236;-70
2022/04/25 11:16:39;;;;;;;7.10;4.43;;;;;;;10.00;90.84;99001.22;4199175;28;21261;-69
2022/04/25 11:19:19;;;;;;;7.47;4.83;;;;;;;10.10;91.89;99007.13;4190998;28;21133;-69
2022/04/25 11:21:55;;;;;;;9.27;5.07;;;;;;;10.11;89.84;99003.47;4190566;28;20314;-70
2022/04/25 11:24:26;;;;;;;7.40;5.00;;;;;;;10.21;90.30;99003.25;4183072;28;20850;-70
2022/04/25 11:26:54;;;;;;;7.47;4.60;;;;;;;10.24;89.70;99005.53;4196586;28;20233;-73
2022/04/25 11:29:23;;;;;;;11.33;5.83;;;;;;;10.33;89.88;99006.34;4200350;28;21055;-70
2022/04/25 11:31:50;;;;;;;7.10;4.83;;;;;;;10.31;87.58;99011.00;4216918;28;20562;-70
2022/04/25 11:34:20;;;;;;;6.50;4.50;;;;;;;10.54;86.70;99017.13;4212298;28;21346;-72
2022/04/25 11:36:47;;;;;;;5.93;4.23;;;;;;;10.54;85.56;99017.13;4208346;28;21769;-75
2022/04/25 11:42:06;;;;;;;9.63;4.47;;;;;;;10.53;84.66;99017.28;4232871;28;21998;-71
2022/04/25 11:44:34;;;;;;;10.27;4.70;;;;;;;10.56;85.54;99023.09;4194430;28;20224;-74
2022/04/25 11:47:01;;;;;;;7.17;4.30;;;;;;;10.70;84.86;99029.44;4213593;28;20232;-70
2022/04/25 11:49:30;;;;;;;7.53;4.53;;;;;;;10.39;85.66;99026.88;4191463;28;20300;-71
2022/04/25 11:52:00;;;;;;;6.17;3.83;;;;;;;10.49;84.69;99031.97;4191731;28;20229;-74
2022/04/25 11:54:30;;;;;;;6.67;4.00;;;;;;;10.31;85.06;99027.78;4209340;28;20470;-71
2022/04/25 11:57:02;;;;;;;9.97;4.77;;;;;;;10.19;85.21;99031.00;4221345;28;22053;-70